Time;durP1;ratioP1;P1;durP2;ratioP2;P2;SDS_P1;SDS_P2;PMS_P1;PMS_P2;Temp;Humidity;BMP_temperature;BMP_pressure;BME280_temperature;BME280_humidity;BME280_pressure;Samples;Min_cycle;Max_cycle;Signal;HPM_P1;HPM_P2
2024/04/02 05:38:06;;;;;;;;;0.00;0.00;;;;;22.13;40.77;100404.88;4946055;23;45616;-74
2024/04/02 05:40:32;;;;;;;;;1.33;0.00;;;;;22.27;41.61;100415.59;4927718;28;45448;-76
2024/04/02 05:42:58;;;;;;;;;1.67;0.00;;;;;22.14;41.24;100406.53;4926766;28;45620;-77
2024/04/02 05:45:24;;;;;;;;;0.00;0.00;;;;;22.14;40.93;100403.88;4917526;28;46613;-78
2024/04/02 05:47:53;;;;;;;;;0.00;0.00;;;;;22.32;41.72;100436.19;4921981;28;45243;-78
2024/04/02 05:50:18;;;;;;;;;0.00;0.00;;;;;22.20;41.32;100417.38;4935794;28;45354;-87
2024/04/02 05:52:44;;;;;;;;;2.33;0.00;;;;;22.34;41.36;100442.94;4930919;28;45607;-77
2024/04/02 05:55:09;;;;;;;;;0.00;0.00;;;;;22.31;41.64;100434.56;4931011;28;46001;-80
2024/04/02 05:57:35;;;;;;;;;0.67;0.00;;;;;22.26;41.99;100427.19;4935481;28;45434;-83
2024/04/02 06:00:01;;;;;;;;;0.00;0.00;;;;;22.22;42.04;100418.81;4937245;28;45461;-86
2024/04/02 06:02:26;;;;;;;;;1.67;0.00;;;;;22.34;41.90;100432.34;4936377;28;46453;-82
2024/04/02 06:04:51;;;;;;;;;0.33;0.00;;;;;22.35;41.94;100436.63;4937483;28;46096;-82
2024/04/02 06:07:17;;;;;;;;;0.00;0.00;;;;;22.27;41.58;100420.88;4939239;28;45724;-83
2024/04/02 06:09:42;;;;;;;;;0.00;0.00;;;;;22.31;41.80;100435.38;4940201;28;45371;-81
2024/04/02 06:12:08;;;;;;;;;0.00;0.00;;;;;22.35;41.41;100433.97;4939361;28;45418;-80
2024/04/02 06:14:34;;;;;;;;;1.00;0.00;;;;;22.29;41.65;100426.81;4935612;28;46240;-77
2024/04/02 06:16:59;;;;;;;;;0.00;0.00;;;;;22.44;41.98;100449.75;4940014;28;45379;-77
2024/04/02 06:19:24;;;;;;;;;1.00;1.00;;;;;22.27;41.60;100434.13;4939072;28;45328;-78
2024/04/02 06:21:50;;;;;;;;;0.00;0.00;;;;;22.42;41.94;100454.41;4939588;28;45382;-76
2024/04/02 06:24:15;;;;;;;;;1.00;0.00;;;;;22.44;41.74;100463.00;4939777;28;46416;-78
2024/04/02 06:26:41;;;;;;;;;0.67;0.00;;;;;22.51;41.90;100456.72;4933149;28;45447;-76
2024/04/02 06:29:06;;;;;;;;;0.00;0.00;;;;;22.56;41.72;100458.78;4935001;28;45351;-72
2024/04/02 06:31:31;;;;;;;;;0.00;0.00;;;;;22.54;41.58;100460.00;4939061;28;45486;-75
2024/04/02 06:33:57;;;;;;;;;0.00;0.00;;;;;22.46;41.92;100445.88;4938018;28;45406;-77
2024/04/02 06:36:26;;;;;;;;;2.00;0.00;;;;;22.50;41.78;100464.88;4937314;28;45392;-75
2024/04/02 06:38:51;;;;;;;;;0.00;0.00;;;;;22.58;41.52;100470.06;4938723;28;45745;-76
2024/04/02 06:41:17;;;;;;;;;0.33;0.00;;;;;22.52;41.87;100462.84;4938673;28;45238;-75
2024/04/02 06:43:42;;;;;;;;;0.00;0.00;;;;;22.20;41.96;100406.78;4939602;28;46040;-76
2024/04/02 06:46:08;;;;;;;;;0.00;0.00;;;;;22.56;41.54;100476.56;4939458;28;45242;-75
2024/04/02 06:48:33;;;;;;;;;0.00;0.00;;;;;22.48;41.74;100472.22;4939805;28;45180;-75
2024/04/02 06:51:00;;;;;;;;;0.00;0.00;;;;;22.55;41.93;100480.22;4939066;28;45538;-76
2024/04/02 06:53:26;;;;;;;;;0.00;0.00;;;;;22.47;42.03;100475.88;4939576;28;47130;-74
2024/04/02 06:55:52;;;;;;;;;0.00;0.00;;;;;22.53;42.01;100475.13;4939494;28;45419;-76
2024/04/02 06:58:19;;;;;;;;;2.00;0.00;;;;;22.52;41.53;100476.13;4939549;28;45371;-74
2024/04/02 07:00:44;;;;;;;;;2.67;0.00;;;;;22.24;41.76;100448.59;4939715;28;45357;-75
2024/04/02 07:03:15;;;;;;;;;0.00;0.00;;;;;22.44;41.73;100470.94;4939211;28;45517;-75
2024/04/02 07:05:41;;;;;;;;;1.00;1.00;;;;;22.45;41.79;100476.06;4939085;28;45247;-75
2024/04/02 07:08:06;;;;;;;;;0.00;0.00;;;;;22.58;41.74;100490.44;4939319;28;45520;-76
2024/04/02 07:10:32;;;;;;;;;2.00;1.00;;;;;22.48;41.41;100473.00;4939523;28;45418;-75
2024/04/02 07:12:57;;;;;;;;;0.67;0.00;;;;;22.62;41.76;100494.31;4930005;28;46064;-75
2024/04/02 07:15:22;;;;;;;;;0.00;0.00;;;;;22.41;41.28;100466.84;4938347;28;45343;-75
2024/04/02 07:17:49;;;;;;;;;1.00;1.00;;;;;22.66;41.52;100513.34;4939287;28;45373;-75
2024/04/02 07:20:15;;;;;;;;;3.00;0.00;;;;;22.67;41.21;100514.97;4939006;28;45422;-75
2024/04/02 07:22:40;;;;;;;;;1.00;1.00;;;;;22.61;41.34;100506.75;4939187;28;45384;-75
2024/04/02 07:25:06;;;;;;;;;3.00;0.00;;;;;22.64;41.78;100508.22;4939068;28;45301;-75
2024/04/02 07:27:33;;;;;;;;;0.67;0.67;;;;;22.53;41.47;100498.97;4939076;28;45276;-76
2024/04/02 07:29:58;;;;;;;;;0.67;0.00;;;;;22.65;41.60;100520.47;4927387;28;45291;-75
2024/04/02 07:32:24;;;;;;;;;0.00;0.00;;;;;22.68;41.57;100519.25;4921046;28;46777;-75
2024/04/02 07:34:49;;;;;;;;;0.00;0.00;;;;;22.60;41.64;100507.78;4938615;28;45394;-76
2024/04/02 07:37:14;;;;;;;;;0.00;0.00;;;;;22.69;41.44;100520.91;4938830;28;45310;-76
2024/04/02 07:39:40;;;;;;;;;0.00;0.00;;;;;22.61;41.33;100521.88;4938899;28;45383;-76
2024/04/02 07:42:05;;;;;;;;;1.00;0.00;;;;;22.61;41.37;100520.03;4938918;28;46338;-76
2024/04/02 07:44:31;;;;;;;;;0.67;0.67;;;;;22.66;41.44;100542.50;4937587;28;45349;-76
2024/04/02 07:46:56;;;;;;;;;0.00;0.00;;;;;22.66;41.69;100531.91;4938846;28;45458;-75
2024/04/02 07:49:21;;;;;;;;;1.00;1.00;;;;;22.57;41.49;100523.25;4937385;28;45314;-76
2024/04/02 07:51:47;;;;;;;;;0.00;0.00;;;;;22.65;41.00;100533.72;4938741;28;45415;-75
2024/04/02 07:54:14;;;;;;;;;0.67;0.00;;;;;22.65;41.05;100551.47;4938916;28;45374;-75
2024/04/02 07:56:39;;;;;;;;;1.00;0.33;;;;;22.67;41.21;100536.16;4938751;28;45387;-75
2024/04/02 07:59:04;;;;;;;;;0.00;0.00;;;;;22.65;41.00;100540.84;4938790;28;45377;-76
2024/04/02 08:01:30;;;;;;;;;0.67;0.00;;;;;22.44;41.61;100524.78;4938503;28;47172;-76
2024/04/02 08:03:55;;;;;;;;;0.00;0.00;;;;;22.65;41.51;100548.81;4938289;28;45386;-75
2024/04/02 08:06:20;;;;;;;;;0.00;0.00;;;;;22.55;41.58;100543.84;4937359;28;45370;-75
2024/04/02 08:08:48;;;;;;;;;2.00;1.00;;;;;22.65;41.28;100554.13;4938664;28;45386;-75
2024/04/02 08:11:13;;;;;;;;;0.00;0.00;;;;;22.61;41.34;100554.50;4938431;28;47423;-76
2024/04/02 08:13:39;;;;;;;;;0.00;0.00;;;;;22.64;41.40;100571.84;4938761;28;45363;-74
2024/04/02 08:16:04;;;;;;;;;0.00;0.00;;;;;22.15;41.30;100516.78;4938545;28;45413;-75
2024/04/02 08:18:30;;;;;;;;;0.00;0.00;;;;;22.66;41.37;100576.97;4938317;28;45381;-76
2024/04/02 08:20:55;;;;;;;;;2.00;0.00;;;;;22.47;41.17;100540.31;4936793;28;48257;-75
2024/04/02 08:23:20;;;;;;;;;0.00;0.00;;;;;22.68;41.58;100574.94;4938287;28;45316;-75
2024/04/02 08:25:46;;;;;;;;;1.00;0.00;;;;;22.37;41.54;100556.53;4938520;28;45354;-75
2024/04/02 08:28:11;;;;;;;;;0.00;0.00;;;;;22.70;41.19;100596.81;4936436;28;45468;-76
2024/04/02 08:30:37;;;;;;;;;0.00;0.00;;;;;22.31;41.30;100540.56;4938141;28;46332;-76
2024/04/02 08:33:02;;;;;;;;;0.33;0.33;;;;;22.69;41.34;100605.78;4936471;28;45332;-75
2024/04/02 08:35:27;;;;;;;;;0.00;0.00;;;;;22.67;40.91;100597.16;4938351;28;45503;-76
2024/04/02 08:37:53;;;;;;;;;1.00;0.00;;;;;22.64;41.17;100598.38;4938066;28;45331;-76
2024/04/02 08:40:19;;;;;;;;;1.33;0.00;;;;;22.48;41.17;100576.41;4937795;28;46284;-76
2024/04/02 08:42:49;;;;;;;;;0.00;0.00;;;;;22.64;41.51;100622.22;4937967;28;45391;-76
2024/04/02 08:45:17;;;;;;;;;1.67;1.00;;;;;22.61;41.46;100614.69;4938124;28;45292;-75
2024/04/02 08:47:43;;;;;;;;;0.00;0.00;;;;;22.51;40.87;100617.63;4937592;28;45524;-75
2024/04/02 08:50:11;;;;;;;;;0.00;0.00;;;;;22.56;41.49;100617.88;4937783;28;45423;-75
2024/04/02 08:52:36;;;;;;;;;2.00;0.00;;;;;22.66;41.47;100644.09;4937984;28;45350;-76
2024/04/02 08:55:02;;;;;;;;;0.00;0.00;;;;;22.66;41.31;100652.06;4937888;28;45505;-75
2024/04/02 08:57:29;;;;;;;;;1.00;0.00;;;;;22.58;41.30;100636.25;4937841;28;45483;-75
2024/04/02 08:59:56;;;;;;;;;0.00;0.00;;;;;22.63;41.17;100658.56;4937685;28;45529;-75
2024/04/02 09:02:22;;;;;;;;;0.67;0.00;;;;;22.48;41.31;100634.72;4937285;28;45585;-76
2024/04/02 09:04:47;;;;;;;;;0.00;0.00;;;;;22.65;41.21;100662.84;4937814;28;45386;-76
2024/04/02 09:07:13;;;;;;;;;0.00;0.00;;;;;22.18;41.05;100603.84;4937594;28;45331;-75
2024/04/02 09:09:41;;;;;;;;;0.00;0.00;;;;;22.64;40.98;100662.00;4937493;28;47363;-75
2024/04/02 09:12:07;;;;;;;;;0.00;0.00;;;;;22.64;40.84;100654.06;4937709;28;45399;-75
2024/04/02 09:14:33;;;;;;;;;0.00;0.00;;;;;22.34;41.09;100607.28;4937716;28;45261;-76
2024/04/02 09:16:59;;;;;;;;;0.00;0.00;;;;;22.66;41.32;100667.13;4937294;28;45435;-75
2024/04/02 09:19:25;;;;;;;;;0.67;0.67;;;;;22.32;40.85;100608.47;4937403;28;45415;-76
2024/04/02 09:21:50;;;;;;;;;1.00;0.00;;;;;22.44;41.22;100638.78;4937475;28;45314;-75
2024/04/02 09:24:16;;;;;;;;;1.00;0.00;;;;;22.52;41.04;100633.34;4937545;28;45354;-75
2024/04/02 09:26:41;;;;;;;;;2.00;0.00;;;;;22.72;40.86;100675.19;4937424;28;45361;-75
2024/04/02 09:29:07;;;;;;;;;0.00;0.00;;;;;22.73;41.12;100673.34;4937426;28;47412;-75
2024/04/02 09:31:33;;;;;;;;;1.33;0.00;;;;;22.71;41.28;100662.94;4937035;28;45325;-75
2024/04/02 09:34:05;;;;;;;;;0.00;0.00;;;;;22.77;41.37;100671.16;4937599;28;45405;-75
2024/04/02 09:36:47;;;;;;;;;1.00;0.00;;;;;22.78;40.85;100678.91;4937239;28;45380;-75
2024/04/02 09:39:15;;;;;;;;;1.67;0.00;;;;;22.78;40.81;100681.56;4937220;28;46165;-75
2024/04/02 09:41:45;;;;;;;;;0.00;0.00;;;;;22.72;41.01;100683.13;4940612;28;45335;-75
2024/04/02 09:44:19;;;;;;;;;0.00;0.00;;;;;22.59;40.87;100644.03;4940791;28;45418;-75
2024/04/02 09:46:44;;;;;;;;;0.00;0.00;;;;;22.83;40.65;100681.00;4940310;28;45453;-75
2024/04/02 09:49:11;;;;;;;;;0.00;0.00;;;;;22.73;41.18;100649.47;4940378;28;46017;-76
2024/04/02 09:51:39;;;;;;;;;0.33;0.00;;;;;22.87;40.86;100682.28;4940700;28;45330;-76
2024/04/02 09:54:05;;;;;;;;;1.00;1.00;;;;;22.89;40.65;100676.75;4940638;28;45412;-76
2024/04/02 09:56:32;;;;;;;;;1.67;0.00;;;;;22.62;40.96;100632.22;4940615;28;45236;-75
2024/04/02 09:59:00;;;;;;;;;1.00;0.00;;;;;22.69;40.97;100634.94;4940421;28;46549;-76
2024/04/02 10:01:27;;;;;;;;;0.00;0.00;;;;;22.49;40.89;100593.97;4939939;28;45334;-75
2024/04/02 10:03:57;;;;;;;;;0.00;0.00;;;;;22.81;40.80;100651.19;4940654;28;45280;-76
2024/04/02 10:06:24;;;;;;;;;0.00;0.00;;;;;22.70;40.98;100621.50;4940369;28;45575;-75
2024/04/02 10:09:03;;;;;;;;;0.67;0.00;;;;;23.01;41.02;100654.00;4940157;28;47306;-76
2024/04/02 10:11:37;;;;;;;;;0.00;0.00;;;;;22.84;40.48;100653.47;4940092;28;45382;-75
2024/04/02 10:14:07;;;;;;;;;0.00;0.00;;;;;23.04;40.33;100664.25;4939998;28;45275;-75
2024/04/02 10:16:34;;;;;;;;;0.00;0.00;;;;;23.05;40.57;100673.03;4940192;28;45510;-74
2024/04/02 10:19:01;;;;;;;;;0.00;0.00;;;;;22.96;40.30;100667.03;4940036;28;46043;-75
2024/04/02 10:21:27;;;;;;;;;0.00;0.00;;;;;22.90;40.97;100654.53;4940048;28;45386;-76
2024/04/02 10:23:54;;;;;;;;;0.00;0.00;;;;;23.07;40.77;100682.44;4940227;28;45378;-75
2024/04/02 10:26:20;;;;;;;;;0.33;0.00;;;;;23.11;40.86;100695.34;4940016;28;45243;-76
2024/04/02 10:28:46;;;;;;;;;0.33;0.00;;;;;23.02;40.34;100698.13;4939548;28;46301;-75
2024/04/02 10:31:15;;;;;;;;;0.00;0.00;;;;;23.12;40.79;100700.44;4939894;28;45454;-75
2024/04/02 10:33:42;;;;;;;;;1.00;1.00;;;;;23.09;40.91;100687.53;4940043;28;45400;-75
2024/04/02 10:36:08;;;;;;;;;1.00;1.00;;;;;23.14;40.43;100690.44;4939623;28;45641;-76
2024/04/02 10:38:33;;;;;;;;;0.00;0.00;;;;;23.15;40.60;100686.78;4939725;28;46025;-75
2024/04/02 10:40:59;;;;;;;;;2.67;0.00;;;;;23.02;40.49;100668.94;4939818;28;45342;-75
2024/04/02 10:43:24;;;;;;;;;0.00;0.00;;;;;22.98;40.12;100688.88;4939636;28;45438;-75
2024/04/02 10:45:51;;;;;;;;;2.00;0.00;;;;;23.18;40.59;100704.16;4939930;28;45332;-75
2024/04/02 10:48:16;;;;;;;;;2.00;1.00;;;;;23.19;40.38;100692.53;4939698;28;47225;-75
2024/04/02 10:50:42;;;;;;;;;0.00;0.00;;;;;22.89;40.23;100661.69;4939286;28;45423;-76
2024/04/02 10:53:07;;;;;;;;;0.00;0.00;;;;;23.18;40.48;100701.50;4938579;28;45465;-76
2024/04/02 10:55:33;;;;;;;;;2.00;0.00;;;;;23.14;40.42;100693.09;4939787;28;45483;-75
2024/04/02 10:57:59;;;;;;;;;1.00;0.67;;;;;23.20;40.51;100711.94;4939174;28;45331;-76
2024/04/02 11:00:25;;;;;;;;;3.00;0.00;;;;;23.19;40.58;100703.13;4939633;28;45382;-76
2024/04/02 11:02:52;;;;;;;;;0.33;0.33;;;;;23.20;39.98;100703.97;4939536;28;45373;-75
2024/04/02 11:05:17;;;;;;;;;0.00;0.00;;;;;23.19;40.07;100716.41;4939521;28;45486;-75
2024/04/02 11:07:45;;;;;;;;;0.00;0.00;;;;;23.20;40.53;100718.06;4939202;28;45661;-76
2024/04/02 11:10:11;;;;;;;;;1.33;0.00;;;;;23.19;40.23;100713.75;4939352;28;45415;-76
2024/04/02 11:12:37;;;;;;;;;1.00;1.00;;;;;23.07;40.24;100702.84;4939128;28;45378;-75
2024/04/02 11:15:02;;;;;;;;;1.00;0.00;;;;;23.13;40.21;100704.75;4939338;28;45418;-75
2024/04/02 11:17:28;;;;;;;;;0.00;0.00;;;;;23.12;40.04;100691.66;4939238;28;46911;-75
2024/04/02 11:19:53;;;;;;;;;1.33;0.00;;;;;23.19;40.00;100692.53;4939327;28;45287;-75
2024/04/02 11:25:14;;;;;;;;;2.00;0.00;;;;;23.15;39.99;100704.53;4939228;28;45377;-76
2024/04/02 11:27:43;;;;;;;;;0.00;0.00;;;;;23.20;40.31;100696.00;4937211;28;47027;-76
2024/04/02 11:30:09;;;;;;;;;0.00;0.00;;;;;22.98;40.38;100667.66;4939039;28;45386;-76
2024/04/02 11:32:36;;;;;;;;;0.00;0.00;;;;;21.98;40.54;100502.97;4939289;28;45397;-75
2024/04/02 11:35:15;;;;;;;;;0.67;0.00;;;;;23.06;40.32;100664.03;4938984;28;45455;-75
2024/04/02 11:37:43;;;;;;;;;1.00;0.00;;;;;23.11;40.51;100680.22;4938712;28;46027;-75
2024/04/02 11:40:15;;;;;;;;;0.00;0.00;;;;;23.00;40.20;100670.13;4938712;28;45316;-76
2024/04/02 11:42:41;;;;;;;;;0.00;0.00;;;;;22.86;40.20;100646.13;4938676;28;45354;-76
2024/04/02 11:45:07;;;;;;;;;0.00;0.00;;;;;22.58;40.11;100607.94;4938927;28;45592;-75
2024/04/02 11:47:36;;;;;;;;;0.00;0.00;;;;;23.12;40.25;100691.66;4938614;28;45476;-75
2024/04/02 11:50:04;;;;;;;;;0.00;0.00;;;;;23.15;40.34;100700.06;4938955;28;45457;-75
2024/04/02 11:52:32;;;;;;;;;0.00;0.00;;;;;23.05;40.05;100684.47;4938823;28;45375;-75
2024/04/02 11:54:57;;;;;;;;;0.00;0.00;;;;;23.13;40.54;100709.22;4937445;28;45381;-75
2024/04/02 12:00:10;;;;;;;;;0.00;0.00;;;;;23.00;40.15;100673.63;4938617;28;45287;-75
2024/04/02 12:02:46;;;;;;;;;0.00;0.00;;;;;22.95;40.53;100665.41;4937749;28;45319;-75
2024/04/02 12:05:12;;;;;;;;;0.00;0.00;;;;;23.12;40.59;100689.00;4938616;28;45327;-76
2024/04/02 12:07:38;;;;;;;;;0.00;0.00;;;;;22.98;40.35;100661.56;4937235;28;48183;-75
2024/04/02 12:10:05;;;;;;;;;0.33;0.00;;;;;23.06;40.74;100674.66;4938089;28;45377;-76
2024/04/02 12:12:32;;;;;;;;;2.67;0.67;;;;;23.08;40.10;100677.97;4938545;28;45397;-76
2024/04/02 12:14:58;;;;;;;;;0.33;0.00;;;;;23.09;40.33;100682.25;4938478;28;45222;-75
2024/04/02 12:17:24;;;;;;;;;0.00;0.00;;;;;22.98;40.64;100666.84;4938286;28;46294;-75
2024/04/02 12:19:52;;;;;;;;;0.00;0.00;;;;;22.95;40.52;100655.59;4937101;28;45251;-75
2024/04/02 12:22:18;;;;;;;;;1.00;0.00;;;;;23.03;40.72;100680.38;4938283;28;45354;-75
2024/04/02 12:24:44;;;;;;;;;1.00;0.00;;;;;22.96;40.00;100675.81;4938025;28;45461;-76
2024/04/02 12:27:09;;;;;;;;;0.00;0.00;;;;;23.06;40.69;100683.44;4937809;28;45685;-75
2024/04/02 12:29:36;;;;;;;;;0.00;0.00;;;;;23.07;40.07;100686.94;4938309;28;45408;-75
2024/04/02 12:32:02;;;;;;;;;0.00;0.00;;;;;23.07;40.72;100678.97;4938380;28;45502;-75
2024/04/02 12:34:27;;;;;;;;;0.00;0.00;;;;;23.04;40.70;100682.81;4938035;28;45349;-75
2024/04/02 12:36:54;;;;;;;;;0.67;0.67;;;;;22.85;40.34;100650.63;4936450;28;47378;-76
2024/04/02 12:39:19;;;;;;;;;1.00;0.00;;;;;23.04;40.55;100689.94;4937827;28;45435;-76
2024/04/02 12:41:45;;;;;;;;;1.00;0.00;;;;;22.66;40.07;100620.22;4937944;28;45673;-75
2024/04/02 12:44:10;;;;;;;;;0.00;0.00;;;;;23.03;40.67;100689.13;4936831;28;45389;-76
2024/04/02 12:46:36;;;;;;;;;0.00;0.00;;;;;22.80;40.51;100660.97;4936431;28;46241;-75
2024/04/02 12:49:07;;;;;;;;;0.00;0.00;;;;;23.02;40.23;100697.28;4938017;28;45323;-75
2024/04/02 12:51:33;;;;;;;;;0.00;0.00;;;;;22.97;40.19;100689.91;4938069;28;45381;-76
2024/04/02 12:54:00;;;;;;;;;2.00;0.00;;;;;23.01;40.69;100701.78;4937553;28;45505;-76
2024/04/02 12:56:25;;;;;;;;;0.00;0.00;;;;;22.81;40.30;100673.22;4937717;28;45267;-73
2024/04/02 12:58:52;;;;;;;;;1.00;0.00;;;;;22.86;40.34;100677.97;4937735;28;45399;-76
2024/04/02 13:01:17;;;;;;;;;0.00;0.00;;;;;23.01;40.68;100700.94;4937920;28;45352;-75
2024/04/02 13:03:44;;;;;;;;;1.00;0.33;;;;;22.96;40.05;100689.06;4937782;28;45327;-75
2024/04/02 13:06:10;;;;;;;;;2.00;0.00;;;;;22.77;40.60;100655.25;4937514;28;46421;-73
2024/04/02 13:08:35;;;;;;;;;1.00;1.00;;;;;22.95;40.64;100681.31;4937205;28;45342;-73
2024/04/02 13:11:00;;;;;;;;;0.00;0.00;;;;;22.93;40.29;100676.19;4937781;28;45421;-76
2024/04/02 13:13:26;;;;;;;;;0.00;0.00;;;;;22.88;40.52;100667.97;4937676;28;45392;-76
2024/04/02 13:15:51;;;;;;;;;1.00;0.00;;;;;22.97;40.60;100692.56;4937671;28;45343;-75
2024/04/02 13:18:19;;;;;;;;;0.00;0.00;;;;;22.87;40.15;100676.13;4937477;28;45444;-76
2024/04/02 13:20:46;;;;;;;;;0.00;0.00;;;;;22.95;40.59;100698.03;4937781;28;45422;-76
2024/04/02 13:23:11;;;;;;;;;0.00;0.00;;;;;22.90;40.54;100692.47;4935849;28;45386;-75
2024/04/02 13:25:39;;;;;;;;;0.67;0.67;;;;;22.93;40.29;100701.88;4937241;28;46226;-75
2024/04/02 13:28:05;;;;;;;;;0.00;0.00;;;;;22.61;40.86;100641.19;4937315;28;45598;-75
2024/04/02 13:30:30;;;;;;;;;0.67;0.00;;;;;22.67;40.56;100656.34;4937603;28;45413;-76
2024/04/02 13:32:56;;;;;;;;;0.67;0.00;;;;;22.90;40.77;100686.38;4937526;28;45398;-76
2024/04/02 13:35:25;;;;;;;;;0.00;0.00;;;;;22.87;40.58;100670.84;4937335;28;45756;-75
2024/04/02 13:37:50;;;;;;;;;0.00;0.00;;;;;22.84;40.60;100680.81;4936888;28;45242;-76
2024/04/02 13:40:16;;;;;;;;;0.00;0.00;;;;;22.83;40.23;100670.38;4937247;28;45455;-75
2024/04/02 13:42:41;;;;;;;;;0.00;0.00;;;;;22.85;40.34;100684.28;4937471;28;45394;-75
2024/04/02 13:45:10;;;;;;;;;0.00;0.00;;;;;22.42;40.89;100606.34;4937134;28;46991;-75
2024/04/02 13:47:36;;;;;;;;;0.00;0.00;;;;;22.90;40.84;100687.19;4937195;28;45459;-75
2024/04/02 13:50:01;;;;;;;;;2.33;0.00;;;;;22.50;40.71;100613.34;4937406;28;45568;-76
2024/04/02 13:52:30;;;;;;;;;1.33;0.00;;;;;22.81;40.74;100669.75;4936895;28;45586;-76
2024/04/02 13:54:56;;;;;;;;;0.00;0.00;;;;;22.81;40.37;100661.81;4936972;28;47420;-76
2024/04/02 13:57:21;;;;;;;;;0.00;0.00;;;;;22.69;40.98;100646.34;4937105;28;45347;-75
2024/04/02 13:59:47;;;;;;;;;0.00;0.00;;;;;22.49;40.68;100620.47;4937227;28;45402;-75
2024/04/02 14:02:12;;;;;;;;;0.00;0.00;;;;;22.38;40.85;100597.94;4937001;28;45451;-75
2024/04/02 14:04:43;;;;;;;;;0.00;0.00;;;;;22.70;40.75;100663.94;4936939;28;46616;-74
2024/04/02 14:07:09;;;;;;;;;0.00;0.00;;;;;22.89;40.47;100692.69;4936881;28;45523;-73
2024/04/02 14:09:34;;;;;;;;;0.00;0.00;;;;;22.77;40.67;100665.84;4937013;28;45224;-76
2024/04/02 14:12:00;;;;;;;;;0.00;0.00;;;;;22.49;40.85;100625.78;4937092;28;45270;-75
2024/04/02 14:14:25;;;;;;;;;0.33;0.00;;;;;22.87;40.46;100676.97;4935509;28;46050;-75
2024/04/02 14:16:50;;;;;;;;;3.00;0.00;;;;;22.87;40.67;100686.75;4936766;28;45273;-75
2024/04/02 14:19:16;;;;;;;;;1.67;0.00;;;;;22.34;40.35;100609.09;4937154;28;45347;-75
2024/04/02 14:21:41;;;;;;;;;0.00;0.00;;;;;22.82;40.45;100695.28;4936615;28;45348;-76
2024/04/02 14:24:07;;;;;;;;;1.33;0.67;;;;;22.81;40.90;100677.72;4936661;28;46385;-75
2024/04/02 14:26:32;;;;;;;;;0.00;0.00;;;;;22.85;40.70;100685.09;4938421;28;45423;-75
2024/04/02 14:28:57;;;;;;;;;1.00;0.00;;;;;22.04;40.79;100549.09;4940199;28;45289;-75
2024/04/02 14:31:24;;;;;;;;;0.67;0.00;;;;;22.72;40.92;100656.63;4940444;28;45407;-75
2024/04/02 14:33:51;;;;;;;;;1.00;0.00;;;;;22.84;40.40;100678.16;4939867;28;46313;-75
2024/04/02 14:36:17;;;;;;;;;0.33;0.00;;;;;22.53;40.77;100639.50;4939321;28;45505;-75
2024/04/02 14:38:42;;;;;;;;;0.00;0.00;;;;;22.81;40.58;100675.06;4939976;28;45342;-75
2024/04/02 14:41:08;;;;;;;;;0.00;0.00;;;;;22.73;40.56;100673.34;4939878;28;45618;-75
2024/04/02 14:43:36;;;;;;;;;0.67;0.00;;;;;22.63;40.68;100649.78;4939602;28;46175;-75
2024/04/02 14:46:02;;;;;;;;;0.00;0.00;;;;;22.84;40.81;100680.81;4939807;28;45331;-75
2024/04/02 14:48:31;;;;;;;;;0.00;0.00;;;;;22.84;40.50;100680.00;4939791;28;45406;-75
2024/04/02 14:50:59;;;;;;;;;1.00;0.00;;;;;22.67;40.81;100669.59;4939465;28;45343;-75
2024/04/02 14:53:24;;;;;;;;;0.00;0.00;;;;;22.83;40.50;100681.00;4939557;28;46131;-75
2024/04/02 14:55:57;;;;;;;;;0.00;0.00;;;;;22.69;40.83;100656.97;4938268;28;45353;-75
2024/04/02 14:58:22;;;;;;;;;0.00;0.00;;;;;22.82;40.84;100679.38;4939711;28;45422;-76
2024/04/02 15:00:49;;;;;;;;;0.00;0.00;;;;;22.77;40.78;100671.16;4939642;28;45314;-76
2024/04/02 15:03:15;;;;;;;;;0.67;0.00;;;;;22.58;40.67;100647.69;4939475;28;47281;-75
2024/04/02 15:05:41;;;;;;;;;0.00;0.00;;;;;22.77;41.00;100668.50;4939164;28;45348;-75
2024/04/02 15:08:07;;;;;;;;;1.00;0.00;;;;;22.81;40.74;100683.03;4939741;28;45374;-75
2024/04/02 15:10:33;;;;;;;;;0.00;0.00;;;;;22.46;40.94;100622.66;4938122;28;45556;-75
2024/04/02 15:12:59;;;;;;;;;0.00;0.00;;;;;22.79;40.97;100677.91;4939281;28;46006;-75
2024/04/02 15:15:24;;;;;;;;;0.00;0.00;;;;;22.58;41.09;100653.00;4938051;28;45474;-76
2024/04/02 15:17:50;;;;;;;;;0.00;0.00;;;;;22.79;40.58;100680.56;4939568;28;45355;-75
2024/04/02 15:20:15;;;;;;;;;0.00;0.00;;;;;22.61;40.87;100657.09;4939076;28;45371;-75
2024/04/02 15:22:41;;;;;;;;;0.00;0.00;;;;;22.63;40.95;100666.50;4939043;28;47396;-75
2024/04/02 15:25:06;;;;;;;;;0.00;0.00;;;;;22.56;40.84;100656.84;4939224;28;45317;-75
2024/04/02 15:27:31;;;;;;;;;0.33;0.33;;;;;22.27;40.99;100619.66;4939156;28;45325;-75
2024/04/02 15:29:57;;;;;;;;;0.00;0.00;;;;;22.56;41.14;100659.50;4939239;28;45489;-75
2024/04/02 15:32:22;;;;;;;;;0.00;0.00;;;;;22.60;40.97;100663.41;4939155;28;45975;-76
2024/04/02 15:34:48;;;;;;;;;0.00;0.00;;;;;22.72;40.74;100677.84;4938752;28;45366;-76
2024/04/02 15:37:13;;;;;;;;;0.00;0.00;;;;;22.61;40.72;100657.09;4937474;28;45263;-75
2024/04/02 15:39:39;;;;;;;;;2.00;0.00;;;;;22.22;40.89;100593.72;4939041;28;45298;-75
2024/04/02 15:42:04;;;;;;;;;0.00;0.00;;;;;22.70;41.07;100677.22;4938780;28;46987;-75
2024/04/02 15:44:30;;;;;;;;;0.67;0.67;;;;;22.65;40.88;100660.19;4938955;28;45423;-76
2024/04/02 15:46:55;;;;;;;;;0.00;0.00;;;;;22.77;40.90;100679.91;4938953;28;45494;-76
2024/04/02 15:49:21;;;;;;;;;1.00;1.00;;;;;22.77;40.93;100676.47;4938648;28;45542;-75
2024/04/02 15:51:46;;;;;;;;;0.33;0.33;;;;;22.62;41.19;100656.06;4938806;28;46068;-75
2024/04/02 15:54:12;;;;;;;;;0.00;0.00;;;;;22.63;41.50;100657.72;4937506;28;45473;-75
2024/04/02 15:56:38;;;;;;;;;0.00;0.00;;;;;22.53;41.30;100636.84;4938868;28;45543;-75
2024/04/02 15:59:03;;;;;;;;;0.00;0.00;;;;;22.66;41.13;100664.50;4938641;28;45363;-75
2024/04/02 16:01:28;;;;;;;;;0.00;0.00;;;;;22.65;40.83;100650.41;4938548;28;46164;-74
2024/04/02 16:03:54;;;;;;;;;0.00;0.00;;;;;22.59;40.78;100627.28;4938382;28;45507;-76
2024/04/02 16:06:19;;;;;;;;;0.00;0.00;;;;;22.46;40.89;100614.72;4938710;28;45397;-75
2024/04/02 16:08:45;;;;;;;;;0.00;0.00;;;;;22.74;41.07;100651.13;4938749;28;45377;-75
2024/04/02 16:11:12;;;;;;;;;2.67;0.00;;;;;22.73;41.28;100652.13;4938401;28;45940;-75
2024/04/02 16:13:38;;;;;;;;;0.00;0.00;;;;;22.72;40.94;100640.69;4938628;28;45327;-75
2024/04/02 16:16:09;;;;;;;;;0.00;0.00;;;;;22.36;40.94;100581.41;4938415;28;45307;-75
2024/04/02 16:18:35;;;;;;;;;0.00;0.00;;;;;22.72;41.20;100639.88;4938167;28;45302;-75
2024/04/02 16:21:01;;;;;;;;;0.00;0.00;;;;;22.56;40.80;100607.28;4938157;28;47132;-75
2024/04/02 16:23:28;;;;;;;;;0.00;0.00;;;;;22.65;40.90;100623.06;4938318;28;45533;-75
2024/04/02 16:25:58;;;;;;;;;0.00;0.00;;;;;22.25;41.17;100558.06;4938306;28;45384;-76
2024/04/02 16:28:25;;;;;;;;;0.00;0.00;;;;;22.69;41.11;100632.28;4938181;28;45431;-75
2024/04/02 16:30:52;;;;;;;;;1.00;0.00;;;;;22.70;41.03;100632.13;4937697;28;47120;-76
2024/04/02 16:33:18;;;;;;;;;0.00;0.00;;;;;22.69;40.88;100621.69;4938171;28;45381;-75
2024/04/02 16:35:44;;;;;;;;;0.00;0.00;;;;;22.20;41.35;100552.50;4938037;28;45566;-75
2024/04/02 16:38:12;;;;;;;;;0.00;0.00;;;;;22.61;40.88;100607.53;4938284;28;45390;-75
2024/04/02 16:40:41;;;;;;;;;0.00;0.00;;;;;22.36;41.04;100575.28;4937901;28;46253;-75
2024/04/02 16:43:07;;;;;;;;;0.33;0.33;;;;;22.71;41.42;100623.16;4937812;28;45307;-75
2024/04/02 16:45:41;;;;;;;;;0.00;0.00;;;;;22.56;41.43;100601.16;4937686;28;45654;-75
2024/04/02 16:48:07;;;;;;;;;0.67;0.00;;;;;22.66;40.89;100611.44;4937426;28;45509;-75
2024/04/02 16:50:35;;;;;;;;;0.00;0.00;;;;;22.71;41.32;100611.72;4936565;28;46171;-75
2024/04/02 16:53:02;;;;;;;;;0.00;0.00;;;;;22.68;41.51;100622.69;4937271;28;45553;-75
2024/04/02 16:55:28;;;;;;;;;1.67;0.00;;;;;22.70;41.29;100618.88;4937877;28;45383;-74
2024/04/02 16:57:53;;;;;;;;;0.00;0.00;;;;;22.69;40.98;100614.53;4937851;28;45457;-74
2024/04/02 17:00:22;;;;;;;;;0.00;0.00;;;;;22.71;41.64;100617.03;4927840;28;46326;-75
2024/04/02 17:02:49;;;;;;;;;0.00;0.00;;;;;22.69;41.17;100614.53;4930997;28;46521;-74